sensor_id;sensor_type;location;lat;lon;timestamp;P1;durP1;ratioP1;P2;durP2;ratioP2
73919;SDS011;62266;53.348;-1.496;2022-12-19T00:02:07;7.13;;;5.60;;
73919;SDS011;62266;53.348;-1.496;2022-12-19T00:04:33;8.70;;;5.97;;
73919;SDS011;62266;53.348;-1.496;2022-12-19T00:06:59;7.22;;;5.25;;
73919;SDS011;62266;53.348;-1.496;2022-12-19T00:09:27;7.03;;;4.90;;
73919;SDS011;62266;53.348;-1.496;2022-12-19T00:11:52;5.70;;;4.37;;
73919;SDS011;62266;53.348;-1.496;2022-12-19T00:14:18;6.17;;;4.10;;
73919;SDS011;62266;53.348;-1.496;2022-12-19T00:16:44;5.85;;;4.00;;
73919;SDS011;62266;53.348;-1.496;2022-12-19T00:19:12;4.68;;;3.80;;
73919;SDS011;62266;53.348;-1.496;2022-12-19T00:21:38;5.00;;;3.33;;
73919;SDS011;62266;53.348;-1.496;2022-12-19T00:24:05;6.05;;;2.95;;
73919;SDS011;62266;53.348;-1.496;2022-12-19T00:26:33;4.20;;;3.20;;
73919;SDS011;62266;53.348;-1.496;2022-12-19T00:29:01;4.10;;;2.97;;
73919;SDS011;62266;53.348;-1.496;2022-12-19T00:31:29;3.43;;;2.73;;
73919;SDS011;62266;53.348;-1.496;2022-12-19T00:33:56;3.67;;;3.00;;
73919;SDS011;62266;53.348;-1.496;2022-12-19T00:36:23;3.40;;;2.30;;
73919;SDS011;62266;53.348;-1.496;2022-12-19T00:38:51;3.50;;;2.10;;
73919;SDS011;62266;53.348;-1.496;2022-12-19T00:43:51;2.88;;;1.92;;
73919;SDS011;62266;53.348;-1.496;2022-12-19T00:46:18;3.97;;;1.70;;
73919;SDS011;62266;53.348;-1.496;2022-12-19T00:48:44;2.25;;;1.83;;
73919;SDS011;62266;53.348;-1.496;2022-12-19T00:51:11;3.33;;;1.77;;
73919;SDS011;62266;53.348;-1.496;2022-12-19T00:53:38;2.25;;;1.55;;
73919;SDS011;62266;53.348;-1.496;2022-12-19T00:56:05;2.38;;;1.70;;
73919;SDS011;62266;53.348;-1.496;2022-12-19T00:58:33;2.38;;;1.73;;
73919;SDS011;62266;53.348;-1.496;2022-12-19T01:01:10;3.33;;;1.50;;
73919;SDS011;62266;53.348;-1.496;2022-12-19T01:03:38;1.95;;;1.30;;
73919;SDS011;62266;53.348;-1.496;2022-12-19T01:06:03;2.42;;;1.65;;
73919;SDS011;62266;53.348;-1.496;2022-12-19T01:08:29;1.70;;;1.50;;
73919;SDS011;62266;53.348;-1.496;2022-12-19T01:10:55;1.97;;;1.70;;
73919;SDS011;62266;53.348;-1.496;2022-12-19T01:13:22;2.07;;;1.43;;
73919;SDS011;62266;53.348;-1.496;2022-12-19T01:15:48;1.98;;;1.63;;
73919;SDS011;62266;53.348;-1.496;2022-12-19T01:18:14;2.08;;;1.60;;
73919;SDS011;62266;53.348;-1.496;2022-12-19T01:20:40;2.23;;;1.67;;
73919;SDS011;62266;53.348;-1.496;2022-12-19T01:23:08;2.67;;;1.90;;
73919;SDS011;62266;53.348;-1.496;2022-12-19T01:25:35;1.77;;;1.40;;
73919;SDS011;62266;53.348;-1.496;2022-12-19T01:28:01;2.67;;;1.70;;
73919;SDS011;62266;53.348;-1.496;2022-12-19T01:30:27;4.15;;;2.40;;
73919;SDS011;62266;53.348;-1.496;2022-12-19T01:32:53;2.90;;;1.90;;
73919;SDS011;62266;53.348;-1.496;2022-12-19T01:35:20;2.53;;;1.80;;
73919;SDS011;62266;53.348;-1.496;2022-12-19T01:37:45;4.10;;;2.47;;
73919;SDS011;62266;53.348;-1.496;2022-12-19T01:40:11;3.93;;;2.90;;
73919;SDS011;62266;53.348;-1.496;2022-12-19T01:42:37;4.50;;;3.17;;
73919;SDS011;62266;53.348;-1.496;2022-12-19T01:47:32;4.50;;;3.08;;
73919;SDS011;62266;53.348;-1.496;2022-12-19T01:50:12;6.43;;;3.45;;
73919;SDS011;62266;53.348;-1.496;2022-12-19T01:52:40;3.90;;;2.87;;
73919;SDS011;62266;53.348;-1.496;2022-12-19T01:55:06;5.65;;;3.38;;
73919;SDS011;62266;53.348;-1.496;2022-12-19T01:57:32;4.85;;;3.47;;
73919;SDS011;62266;53.348;-1.496;2022-12-19T01:59:59;5.47;;;3.13;;
73919;SDS011;62266;53.348;-1.496;2022-12-19T02:02:29;5.53;;;3.05;;
73919;SDS011;62266;53.348;-1.496;2022-12-19T02:04:56;5.53;;;3.70;;
73919;SDS011;62266;53.348;-1.496;2022-12-19T02:07:22;4.60;;;3.03;;
73919;SDS011;62266;53.348;-1.496;2022-12-19T02:09:51;4.20;;;3.00;;
73919;SDS011;62266;53.348;-1.496;2022-12-19T02:12:20;4.00;;;2.70;;
73919;SDS011;62266;53.348;-1.496;2022-12-19T02:14:46;4.65;;;3.15;;
73919;SDS011;62266;53.348;-1.496;2022-12-19T02:41:57;6.17;;;4.00;;
73919;SDS011;62266;53.348;-1.496;2022-12-19T02:44:28;6.18;;;3.78;;
73919;SDS011;62266;53.348;-1.496;2022-12-19T02:46:57;8.25;;;4.20;;
73919;SDS011;62266;53.348;-1.496;2022-12-19T02:49:26;6.38;;;3.80;;
73919;SDS011;62266;53.348;-1.496;2022-12-19T02:51:53;7.13;;;3.80;;
73919;SDS011;62266;53.348;-1.496;2022-12-19T02:54:19;6.88;;;4.28;;
73919;SDS011;62266;53.348;-1.496;2022-12-19T02:56:49;7.22;;;4.13;;
73919;SDS011;62266;53.348;-1.496;2022-12-19T03:02:11;6.80;;;4.07;;
73919;SDS011;62266;53.348;-1.496;2022-12-19T03:07:26;6.78;;;4.22;;
73919;SDS011;62266;53.348;-1.496;2022-12-19T03:12:47;5.90;;;3.80;;
73919;SDS011;62266;53.348;-1.496;2022-12-19T03:15:15;7.18;;;3.97;;
73919;SDS011;62266;53.348;-1.496;2022-12-19T03:17:41;8.63;;;4.00;;
73919;SDS011;62266;53.348;-1.496;2022-12-19T03:20:07;6.77;;;4.20;;
73919;SDS011;62266;53.348;-1.496;2022-12-19T03:22:38;7.70;;;4.65;;
73919;SDS011;62266;53.348;-1.496;2022-12-19T03:25:04;7.15;;;4.25;;
73919;SDS011;62266;53.348;-1.496;2022-12-19T03:27:31;8.43;;;4.73;;
73919;SDS011;62266;53.348;-1.496;2022-12-19T03:30:05;8.45;;;4.80;;
73919;SDS011;62266;53.348;-1.496;2022-12-19T03:32:34;7.75;;;4.93;;
73919;SDS011;62266;53.348;-1.496;2022-12-19T03:37:30;10.07;;;5.40;;
73919;SDS011;62266;53.348;-1.496;2022-12-19T03:40:00;10.57;;;5.50;;
73919;SDS011;62266;53.348;-1.496;2022-12-19T03:42:27;13.40;;;6.95;;
73919;SDS011;62266;53.348;-1.496;2022-12-19T03:45:14;10.48;;;6.22;;
73919;SDS011;62266;53.348;-1.496;2022-12-19T03:47:45;11.75;;;6.63;;
73919;SDS011;62266;53.348;-1.496;2022-12-19T03:50:13;12.20;;;6.77;;
73919;SDS011;62266;53.348;-1.496;2022-12-19T03:52:47;11.10;;;6.30;;
73919;SDS011;62266;53.348;-1.496;2022-12-19T03:58:08;9.32;;;5.68;;
73919;SDS011;62266;53.348;-1.496;2022-12-19T04:00:40;9.75;;;5.07;;
73919;SDS011;62266;53.348;-1.496;2022-12-19T04:03:11;7.97;;;5.30;;
73919;SDS011;62266;53.348;-1.496;2022-12-19T04:05:37;8.57;;;5.15;;
73919;SDS011;62266;53.348;-1.496;2022-12-19T04:08:05;7.70;;;4.50;;
73919;SDS011;62266;53.348;-1.496;2022-12-19T04:10:33;6.88;;;4.40;;
73919;SDS011;62266;53.348;-1.496;2022-12-19T04:13:11;5.90;;;3.95;;
73919;SDS011;62266;53.348;-1.496;2022-12-19T04:18:11;4.82;;;3.30;;
73919;SDS011;62266;53.348;-1.496;2022-12-19T04:20:38;5.68;;;3.42;;
73919;SDS011;62266;53.348;-1.496;2022-12-19T04:25:46;4.47;;;3.00;;
73919;SDS011;62266;53.348;-1.496;2022-12-19T04:28:22;4.30;;;3.07;;
73919;SDS011;62266;53.348;-1.496;2022-12-19T04:30:57;4.10;;;2.92;;
73919;SDS011;62266;53.348;-1.496;2022-12-19T04:33:23;4.35;;;2.83;;
73919;SDS011;62266;53.348;-1.496;2022-12-19T04:35:49;6.57;;;2.97;;
73919;SDS011;62266;53.348;-1.496;2022-12-19T04:38:14;5.90;;;3.28;;
73919;SDS011;62266;53.348;-1.496;2022-12-19T04:40:40;4.83;;;3.77;;
73919;SDS011;62266;53.348;-1.496;2022-12-19T04:43:05;6.07;;;4.20;;
73919;SDS011;62266;53.348;-1.496;2022-12-19T04:45:33;7.80;;;4.00;;
73919;SDS011;62266;53.348;-1.496;2022-12-19T04:47:58;6.53;;;4.13;;
73919;SDS011;62266;53.348;-1.496;2022-12-19T04:50:23;7.20;;;4.25;;
73919;SDS011;62266;53.348;-1.496;2022-12-19T04:52:49;7.57;;;4.40;;
73919;SDS011;62266;53.348;-1.496;2022-12-19T04:55:14;7.90;;;4.30;;
73919;SDS011;62266;53.348;-1.496;2022-12-19T04:57:40;6.22;;;3.90;;
73919;SDS011;62266;53.348;-1.496;2022-12-19T05:00:06;7.17;;;3.63;;
73919;SDS011;62266;53.348;-1.496;2022-12-19T05:02:33;8.00;;;3.92;;
73919;SDS011;62266;53.348;-1.496;2022-12-19T05:04:59;9.63;;;3.60;;
73919;SDS011;62266;53.348;-1.496;2022-12-19T05:07:24;4.90;;;3.17;;
73919;SDS011;62266;53.348;-1.496;2022-12-19T05:09:50;8.77;;;4.10;;
73919;SDS011;62266;53.348;-1.496;2022-12-19T05:12:15;5.67;;;3.40;;
73919;SDS011;62266;53.348;-1.496;2022-12-19T05:14:41;6.32;;;3.47;;
73919;SDS011;62266;53.348;-1.496;2022-12-19T05:17:07;6.97;;;3.38;;
73919;SDS011;62266;53.348;-1.496;2022-12-19T05:19:33;5.93;;;3.17;;
73919;SDS011;62266;53.348;-1.496;2022-12-19T05:21:59;4.63;;;2.63;;
73919;SDS011;62266;53.348;-1.496;2022-12-19T05:24:27;4.35;;;2.58;;
73919;SDS011;62266;53.348;-1.496;2022-12-19T05:26:52;5.97;;;3.17;;
73919;SDS011;62266;53.348;-1.496;2022-12-19T05:29:18;6.87;;;2.97;;
73919;SDS011;62266;53.348;-1.496;2022-12-19T05:31:44;3.97;;;2.28;;
73919;SDS011;62266;53.348;-1.496;2022-12-19T05:34:09;3.53;;;2.20;;
73919;SDS011;62266;53.348;-1.496;2022-12-19T05:36:35;4.80;;;2.50;;
73919;SDS011;62266;53.348;-1.496;2022-12-19T05:39:00;4.57;;;1.97;;
73919;SDS011;62266;53.348;-1.496;2022-12-19T05:41:26;3.45;;;1.70;;
73919;SDS011;62266;53.348;-1.496;2022-12-19T05:43:52;3.70;;;1.90;;
73919;SDS011;62266;53.348;-1.496;2022-12-19T05:46:21;2.33;;;1.30;;
73919;SDS011;62266;53.348;-1.496;2022-12-19T05:48:47;4.53;;;1.50;;
73919;SDS011;62266;53.348;-1.496;2022-12-19T05:51:13;1.70;;;1.20;;
73919;SDS011;62266;53.348;-1.496;2022-12-19T05:53:39;3.28;;;1.30;;
73919;SDS011;62266;53.348;-1.496;2022-12-19T05:56:09;1.60;;;1.20;;
73919;SDS011;62266;53.348;-1.496;2022-12-19T05:58:37;2.08;;;1.10;;
73919;SDS011;62266;53.348;-1.496;2022-12-19T06:01:03;3.10;;;1.10;;
73919;SDS011;62266;53.348;-1.496;2022-12-19T06:03:30;2.75;;;1.00;;
73919;SDS011;62266;53.348;-1.496;2022-12-19T06:05:55;1.98;;;1.00;;
73919;SDS011;62266;53.348;-1.496;2022-12-19T06:08:21;1.97;;;1.00;;
73919;SDS011;62266;53.348;-1.496;2022-12-19T06:10:46;2.27;;;1.13;;
73919;SDS011;62266;53.348;-1.496;2022-12-19T06:13:12;2.63;;;1.10;;
73919;SDS011;62266;53.348;-1.496;2022-12-19T06:15:38;1.93;;;1.37;;
73919;SDS011;62266;53.348;-1.496;2022-12-19T06:18:03;1.55;;;1.15;;
73919;SDS011;62266;53.348;-1.496;2022-12-19T06:20:29;2.07;;;1.23;;
73919;SDS011;62266;53.348;-1.496;2022-12-19T06:22:54;3.80;;;1.70;;
73919;SDS011;62266;53.348;-1.496;2022-12-19T06:25:20;4.60;;;2.42;;
73919;SDS011;62266;53.348;-1.496;2022-12-19T06:27:45;4.37;;;2.07;;
73919;SDS011;62266;53.348;-1.496;2022-12-19T06:30:11;5.90;;;2.30;;
73919;SDS011;62266;53.348;-1.496;2022-12-19T06:32:36;5.65;;;2.22;;
73919;SDS011;62266;53.348;-1.496;2022-12-19T06:35:02;3.30;;;1.70;;
73919;SDS011;62266;53.348;-1.496;2022-12-19T06:37:27;4.97;;;1.92;;
73919;SDS011;62266;53.348;-1.496;2022-12-19T06:39:54;5.23;;;1.60;;
73919;SDS011;62266;53.348;-1.496;2022-12-19T06:42:20;7.35;;;1.50;;
73919;SDS011;62266;53.348;-1.496;2022-12-19T06:44:51;3.33;;;1.40;;
73919;SDS011;62266;53.348;-1.496;2022-12-19T06:47:19;2.97;;;1.30;;
73919;SDS011;62266;53.348;-1.496;2022-12-19T06:49:45;3.03;;;1.40;;
73919;SDS011;62266;53.348;-1.496;2022-12-19T06:52:11;6.13;;;1.50;;
73919;SDS011;62266;53.348;-1.496;2022-12-19T06:54:36;4.60;;;1.40;;
73919;SDS011;62266;53.348;-1.496;2022-12-19T06:57:02;2.30;;;1.10;;
73919;SDS011;62266;53.348;-1.496;2022-12-19T06:59:27;3.67;;;1.17;;
73919;SDS011;62266;53.348;-1.496;2022-12-19T07:01:57;4.38;;;1.15;;
73919;SDS011;62266;53.348;-1.496;2022-12-19T07:04:47;4.17;;;1.27;;
73919;SDS011;62266;53.348;-1.496;2022-12-19T07:07:15;4.70;;;1.70;;
73919;SDS011;62266;53.348;-1.496;2022-12-19T07:09:41;5.38;;;1.77;;
73919;SDS011;62266;53.348;-1.496;2022-12-19T07:12:07;4.23;;;1.90;;
73919;SDS011;62266;53.348;-1.496;2022-12-19T07:14:32;5.53;;;2.17;;
73919;SDS011;62266;53.348;-1.496;2022-12-19T07:16:58;5.20;;;2.07;;
73919;SDS011;62266;53.348;-1.496;2022-12-19T07:19:24;8.18;;;2.67;;
73919;SDS011;62266;53.348;-1.496;2022-12-19T07:21:50;6.18;;;2.95;;
73919;SDS011;62266;53.348;-1.496;2022-12-19T07:24:16;5.20;;;2.20;;
73919;SDS011;62266;53.348;-1.496;2022-12-19T07:26:42;4.07;;;1.42;;
73919;SDS011;62266;53.348;-1.496;2022-12-19T07:29:08;5.67;;;2.03;;
73919;SDS011;62266;53.348;-1.496;2022-12-19T07:31:34;7.30;;;1.88;;
73919;SDS011;62266;53.348;-1.496;2022-12-19T07:34:00;3.97;;;1.90;;
73919;SDS011;62266;53.348;-1.496;2022-12-19T07:36:26;4.18;;;2.10;;
73919;SDS011;62266;53.348;-1.496;2022-12-19T07:38:52;6.43;;;2.10;;
73919;SDS011;62266;53.348;-1.496;2022-12-19T07:41:17;5.03;;;2.03;;
73919;SDS011;62266;53.348;-1.496;2022-12-19T07:43:43;5.80;;;1.90;;
73919;SDS011;62266;53.348;-1.496;2022-12-19T07:46:10;6.40;;;2.00;;
73919;SDS011;62266;53.348;-1.496;2022-12-19T07:48:36;3.20;;;1.67;;
73919;SDS011;62266;53.348;-1.496;2022-12-19T07:51:01;3.95;;;1.60;;
73919;SDS011;62266;53.348;-1.496;2022-12-19T07:53:28;2.73;;;1.23;;
73919;SDS011;62266;53.348;-1.496;2022-12-19T07:55:53;1.77;;;1.13;;
73919;SDS011;62266;53.348;-1.496;2022-12-19T07:58:19;4.27;;;1.23;;
73919;SDS011;62266;53.348;-1.496;2022-12-19T08:00:46;2.47;;;1.17;;
73919;SDS011;62266;53.348;-1.496;2022-12-19T08:03:18;3.03;;;1.25;;
73919;SDS011;62266;53.348;-1.496;2022-12-19T08:05:43;2.53;;;1.10;;
73919;SDS011;62266;53.348;-1.496;2022-12-19T08:08:08;4.40;;;1.40;;
73919;SDS011;62266;53.348;-1.496;2022-12-19T08:10:34;4.13;;;1.43;;
73919;SDS011;62266;53.348;-1.496;2022-12-19T08:13:00;3.90;;;1.52;;
73919;SDS011;62266;53.348;-1.496;2022-12-19T08:15:26;2.65;;;1.73;;
73919;SDS011;62266;53.348;-1.496;2022-12-19T08:17:52;3.03;;;1.83;;
73919;SDS011;62266;53.348;-1.496;2022-12-19T08:20:18;3.05;;;1.52;;
73919;SDS011;62266;53.348;-1.496;2022-12-19T08:22:44;1.92;;;1.70;;
73919;SDS011;62266;53.348;-1.496;2022-12-19T08:25:10;3.87;;;1.63;;
73919;SDS011;62266;53.348;-1.496;2022-12-19T08:27:35;4.45;;;2.38;;
73919;SDS011;62266;53.348;-1.496;2022-12-19T08:30:02;5.90;;;2.70;;
73919;SDS011;62266;53.348;-1.496;2022-12-19T08:32:28;5.30;;;2.37;;
73919;SDS011;62266;53.348;-1.496;2022-12-19T08:34:55;6.03;;;2.45;;
73919;SDS011;62266;53.348;-1.496;2022-12-19T08:37:20;4.93;;;2.10;;
73919;SDS011;62266;53.348;-1.496;2022-12-19T08:39:46;5.00;;;2.33;;
73919;SDS011;62266;53.348;-1.496;2022-12-19T08:42:12;4.32;;;2.25;;
73919;SDS011;62266;53.348;-1.496;2022-12-19T08:44:38;6.10;;;2.60;;
73919;SDS011;62266;53.348;-1.496;2022-12-19T08:47:03;4.30;;;2.60;;
73919;SDS011;62266;53.348;-1.496;2022-12-19T08:49:29;2.53;;;1.90;;
73919;SDS011;62266;53.348;-1.496;2022-12-19T08:51:54;4.32;;;1.40;;
73919;SDS011;62266;53.348;-1.496;2022-12-19T08:54:20;3.10;;;1.40;;
73919;SDS011;62266;53.348;-1.496;2022-12-19T08:56:45;2.77;;;1.20;;
73919;SDS011;62266;53.348;-1.496;2022-12-19T08:59:11;2.17;;;1.20;;
73919;SDS011;62266;53.348;-1.496;2022-12-19T09:01:37;2.53;;;1.50;;
73919;SDS011;62266;53.348;-1.496;2022-12-19T09:04:02;4.55;;;1.50;;
73919;SDS011;62266;53.348;-1.496;2022-12-19T09:06:30;3.78;;;1.60;;
73919;SDS011;62266;53.348;-1.496;2022-12-19T09:08:55;4.63;;;2.00;;
73919;SDS011;62266;53.348;-1.496;2022-12-19T09:11:21;4.70;;;1.90;;
73919;SDS011;62266;53.348;-1.496;2022-12-19T09:13:47;5.83;;;1.60;;
73919;SDS011;62266;53.348;-1.496;2022-12-19T09:16:17;6.07;;;2.15;;
73919;SDS011;62266;53.348;-1.496;2022-12-19T09:18:44;4.05;;;1.60;;
73919;SDS011;62266;53.348;-1.496;2022-12-19T09:21:10;5.30;;;1.58;;
73919;SDS011;62266;53.348;-1.496;2022-12-19T09:23:39;5.20;;;2.00;;
73919;SDS011;62266;53.348;-1.496;2022-12-19T09:26:06;7.20;;;1.60;;
73919;SDS011;62266;53.348;-1.496;2022-12-19T09:28:33;4.53;;;1.90;;
73919;SDS011;62266;53.348;-1.496;2022-12-19T09:31:00;7.10;;;1.90;;
73919;SDS011;62266;53.348;-1.496;2022-12-19T09:33:29;4.70;;;2.42;;
73919;SDS011;62266;53.348;-1.496;2022-12-19T09:35:55;8.00;;;2.20;;
73919;SDS011;62266;53.348;-1.496;2022-12-19T09:38:22;4.03;;;2.30;;
73919;SDS011;62266;53.348;-1.496;2022-12-19T09:40:54;4.30;;;2.05;;
73919;SDS011;62266;53.348;-1.496;2022-12-19T09:49:12;4.55;;;2.28;;
73919;SDS011;62266;53.348;-1.496;2022-12-19T09:56:44;4.67;;;1.20;;
73919;SDS011;62266;53.348;-1.496;2022-12-19T10:08:07;4.32;;;1.98;;
73919;SDS011;62266;53.348;-1.496;2022-12-19T10:18:55;5.50;;;2.08;;
73919;SDS011;62266;53.348;-1.496;2022-12-19T10:21:30;5.38;;;2.53;;
73919;SDS011;62266;53.348;-1.496;2022-12-19T10:26:57;5.63;;;2.00;;
73919;SDS011;62266;53.348;-1.496;2022-12-19T10:30:25;8.23;;;2.20;;
73919;SDS011;62266;53.348;-1.496;2022-12-19T10:34:48;2.93;;;1.93;;
73919;SDS011;62266;53.348;-1.496;2022-12-19T10:45:17;6.22;;;2.97;;
73919;SDS011;62266;53.348;-1.496;2022-12-19T10:47:53;10.13;;;2.78;;
73919;SDS011;62266;53.348;-1.496;2022-12-19T10:50:21;5.88;;;2.20;;
73919;SDS011;62266;53.348;-1.496;2022-12-19T10:55:26;8.17;;;2.43;;
73919;SDS011;62266;53.348;-1.496;2022-12-19T10:58:03;12.60;;;2.25;;
73919;SDS011;62266;53.348;-1.496;2022-12-19T11:04:39;8.50;;;2.10;;
73919;SDS011;62266;53.348;-1.496;2022-12-19T11:09:31;9.13;;;2.27;;
73919;SDS011;62266;53.348;-1.496;2022-12-19T11:14:35;9.13;;;2.55;;
73919;SDS011;62266;53.348;-1.496;2022-12-19T11:17:03;6.07;;;1.95;;
73919;SDS011;62266;53.348;-1.496;2022-12-19T11:19:37;7.50;;;1.60;;
73919;SDS011;62266;53.348;-1.496;2022-12-19T11:22:05;5.67;;;1.43;;
73919;SDS011;62266;53.348;-1.496;2022-12-19T11:24:36;4.68;;;1.48;;
73919;SDS011;62266;53.348;-1.496;2022-12-19T11:32:43;5.10;;;1.50;;
73919;SDS011;62266;53.348;-1.496;2022-12-19T11:37:56;3.92;;;1.25;;
73919;SDS011;62266;53.348;-1.496;2022-12-19T11:40:32;3.60;;;1.50;;
73919;SDS011;62266;53.348;-1.496;2022-12-19T11:43:11;4.63;;;1.10;;
73919;SDS011;62266;53.348;-1.496;2022-12-19T11:48:15;8.07;;;2.60;;
73919;SDS011;62266;53.348;-1.496;2022-12-19T11:50:53;4.30;;;1.40;;
73919;SDS011;62266;53.348;-1.496;2022-12-19T11:53:22;4.38;;;1.83;;
73919;SDS011;62266;53.348;-1.496;2022-12-19T11:55:55;3.40;;;1.10;;
73919;SDS011;62266;53.348;-1.496;2022-12-19T11:58:23;3.28;;;1.40;;
73919;SDS011;62266;53.348;-1.496;2022-12-19T12:01:12;4.43;;;0.93;;
73919;SDS011;62266;53.348;-1.496;2022-12-19T12:04:00;4.22;;;1.27;;
73919;SDS011;62266;53.348;-1.496;2022-12-19T12:06:32;3.38;;;1.55;;
73919;SDS011;62266;53.348;-1.496;2022-12-19T12:11:55;4.03;;;1.02;;
73919;SDS011;62266;53.348;-1.496;2022-12-19T12:26:07;3.60;;;0.70;;
73919;SDS011;62266;53.348;-1.496;2022-12-19T12:44:39;3.72;;;1.02;;
73919;SDS011;62266;53.348;-1.496;2022-12-19T12:47:13;4.28;;;0.80;;
73919;SDS011;62266;53.348;-1.496;2022-12-19T12:49:42;4.30;;;0.85;;
73919;SDS011;62266;53.348;-1.496;2022-12-19T12:52:44;4.95;;;1.25;;
73919;SDS011;62266;53.348;-1.496;2022-12-19T12:57:44;5.03;;;1.10;;
73919;SDS011;62266;53.348;-1.496;2022-12-19T13:02:38;3.07;;;1.50;;
73919;SDS011;62266;53.348;-1.496;2022-12-19T13:05:14;3.45;;;1.60;;
73919;SDS011;62266;53.348;-1.496;2022-12-19T13:07:53;4.25;;;1.80;;
73919;SDS011;62266;53.348;-1.496;2022-12-19T13:10:23;5.10;;;1.52;;
73919;SDS011;62266;53.348;-1.496;2022-12-19T13:12:54;4.25;;;1.48;;
73919;SDS011;62266;53.348;-1.496;2022-12-19T13:15:45;3.90;;;1.37;;
73919;SDS011;62266;53.348;-1.496;2022-12-19T13:18:27;3.03;;;1.17;;
73919;SDS011;62266;53.348;-1.496;2022-12-19T13:21:02;6.07;;;2.20;;
73919;SDS011;62266;53.348;-1.496;2022-12-19T13:25:56;2.15;;;0.93;;
73919;SDS011;62266;53.348;-1.496;2022-12-19T13:33:43;5.20;;;1.20;;
73919;SDS011;62266;53.348;-1.496;2022-12-19T13:39:14;1.70;;;0.90;;
73919;SDS011;62266;53.348;-1.496;2022-12-19T13:44:58;5.57;;;0.98;;
73919;SDS011;62266;53.348;-1.496;2022-12-19T13:47:31;2.00;;;0.90;;
73919;SDS011;62266;53.348;-1.496;2022-12-19T13:50:02;2.30;;;0.88;;
73919;SDS011;62266;53.348;-1.496;2022-12-19T13:52:30;4.03;;;0.98;;
73919;SDS011;62266;53.348;-1.496;2022-12-19T13:54:56;2.97;;;1.40;;
73919;SDS011;62266;53.348;-1.496;2022-12-19T13:59:50;4.95;;;1.95;;
73919;SDS011;62266;53.348;-1.496;2022-12-19T14:02:25;5.67;;;1.40;;
73919;SDS011;62266;53.348;-1.496;2022-12-19T14:04:54;5.10;;;1.52;;
73919;SDS011;62266;53.348;-1.496;2022-12-19T14:09:45;5.17;;;1.47;;
73919;SDS011;62266;53.348;-1.496;2022-12-19T14:12:22;5.55;;;1.50;;
73919;SDS011;62266;53.348;-1.496;2022-12-19T14:15:19;4.07;;;1.00;;
73919;SDS011;62266;53.348;-1.496;2022-12-19T14:17:49;4.40;;;1.17;;
73919;SDS011;62266;53.348;-1.496;2022-12-19T14:20:25;4.67;;;1.80;;
73919;SDS011;62266;53.348;-1.496;2022-12-19T14:22:55;3.47;;;0.90;;
73919;SDS011;62266;53.348;-1.496;2022-12-19T14:25:23;5.83;;;0.87;;
73919;SDS011;62266;53.348;-1.496;2022-12-19T14:27:51;4.70;;;1.33;;
73919;SDS011;62266;53.348;-1.496;2022-12-19T14:30:21;6.22;;;2.28;;
73919;SDS011;62266;53.348;-1.496;2022-12-19T14:32:48;3.42;;;1.02;;
73919;SDS011;62266;53.348;-1.496;2022-12-19T14:35:22;6.25;;;1.40;;
73919;SDS011;62266;53.348;-1.496;2022-12-19T14:37:59;5.33;;;1.50;;
73919;SDS011;62266;53.348;-1.496;2022-12-19T14:40:30;5.13;;;1.20;;
73919;SDS011;62266;53.348;-1.496;2022-12-19T14:43:00;4.97;;;1.25;;
73919;SDS011;62266;53.348;-1.496;2022-12-19T14:51:20;2.73;;;1.10;;
73919;SDS011;62266;53.348;-1.496;2022-12-19T14:59:26;5.03;;;1.15;;
73919;SDS011;62266;53.348;-1.496;2022-12-19T15:01:59;2.40;;;0.95;;
73919;SDS011;62266;53.348;-1.496;2022-12-19T15:04:30;6.13;;;1.37;;
73919;SDS011;62266;53.348;-1.496;2022-12-19T15:07:17;3.47;;;1.45;;
73919;SDS011;62266;53.348;-1.496;2022-12-19T15:12:33;3.83;;;0.88;;
73919;SDS011;62266;53.348;-1.496;2022-12-19T15:15:36;3.38;;;1.08;;
73919;SDS011;62266;53.348;-1.496;2022-12-19T15:18:23;4.77;;;1.33;;
73919;SDS011;62266;53.348;-1.496;2022-12-19T15:20:59;4.75;;;1.10;;
73919;SDS011;62266;53.348;-1.496;2022-12-19T15:23:29;4.38;;;1.30;;
73919;SDS011;62266;53.348;-1.496;2022-12-19T15:25:56;4.57;;;1.40;;
73919;SDS011;62266;53.348;-1.496;2022-12-19T15:28:29;4.57;;;1.52;;
73919;SDS011;62266;53.348;-1.496;2022-12-19T15:31:11;7.03;;;1.83;;
73919;SDS011;62266;53.348;-1.496;2022-12-19T15:34:00;4.32;;;0.90;;
73919;SDS011;62266;53.348;-1.496;2022-12-19T15:36:37;6.47;;;1.27;;
73919;SDS011;62266;53.348;-1.496;2022-12-19T15:39:02;2.70;;;1.00;;
73919;SDS011;62266;53.348;-1.496;2022-12-19T15:41:28;4.90;;;1.55;;
73919;SDS011;62266;53.348;-1.496;2022-12-19T15:43:54;4.05;;;1.20;;
73919;SDS011;62266;53.348;-1.496;2022-12-19T15:46:22;5.67;;;1.30;;
73919;SDS011;62266;53.348;-1.496;2022-12-19T15:48:49;5.10;;;1.60;;
73919;SDS011;62266;53.348;-1.496;2022-12-19T15:51:15;4.32;;;1.40;;
73919;SDS011;62266;53.348;-1.496;2022-12-19T15:53:41;7.47;;;2.10;;
73919;SDS011;62266;53.348;-1.496;2022-12-19T15:56:20;3.42;;;1.50;;
73919;SDS011;62266;53.348;-1.496;2022-12-19T15:58:50;6.88;;;1.67;;
73919;SDS011;62266;53.348;-1.496;2022-12-19T16:01:17;3.42;;;1.23;;
73919;SDS011;62266;53.348;-1.496;2022-12-19T16:03:42;4.73;;;1.20;;
73919;SDS011;62266;53.348;-1.496;2022-12-19T16:06:10;4.97;;;1.10;;
73919;SDS011;62266;53.348;-1.496;2022-12-19T16:08:37;5.95;;;1.00;;
73919;SDS011;62266;53.348;-1.496;2022-12-19T16:11:03;6.38;;;1.15;;
73919;SDS011;62266;53.348;-1.496;2022-12-19T16:13:30;4.35;;;1.58;;
73919;SDS011;62266;53.348;-1.496;2022-12-19T16:15:59;3.75;;;1.00;;
73919;SDS011;62266;53.348;-1.496;2022-12-19T16:18:24;3.00;;;1.10;;
73919;SDS011;62266;53.348;-1.496;2022-12-19T16:20:50;4.20;;;0.82;;
73919;SDS011;62266;53.348;-1.496;2022-12-19T16:23:15;5.20;;;1.30;;
73919;SDS011;62266;53.348;-1.496;2022-12-19T16:25:44;5.32;;;1.08;;
73919;SDS011;62266;53.348;-1.496;2022-12-19T16:28:27;5.05;;;1.48;;
73919;SDS011;62266;53.348;-1.496;2022-12-19T16:30:57;4.60;;;1.00;;
73919;SDS011;62266;53.348;-1.496;2022-12-19T16:33:24;6.13;;;1.40;;
73919;SDS011;62266;53.348;-1.496;2022-12-19T16:35:52;5.53;;;1.67;;
73919;SDS011;62266;53.348;-1.496;2022-12-19T16:38:18;6.30;;;1.90;;
73919;SDS011;62266;53.348;-1.496;2022-12-19T16:40:43;6.50;;;1.60;;
73919;SDS011;62266;53.348;-1.496;2022-12-19T16:43:13;7.32;;;1.70;;
73919;SDS011;62266;53.348;-1.496;2022-12-19T16:45:42;5.82;;;1.17;;
73919;SDS011;62266;53.348;-1.496;2022-12-19T16:48:18;2.70;;;0.98;;
73919;SDS011;62266;53.348;-1.496;2022-12-19T16:50:45;5.60;;;1.48;;
73919;SDS011;62266;53.348;-1.496;2022-12-19T16:53:11;3.77;;;1.10;;
73919;SDS011;62266;53.348;-1.496;2022-12-19T16:55:37;4.63;;;1.67;;
73919;SDS011;62266;53.348;-1.496;2022-12-19T16:58:03;3.85;;;1.02;;
73919;SDS011;62266;53.348;-1.496;2022-12-19T17:00:29;3.07;;;1.13;;
73919;SDS011;62266;53.348;-1.496;2022-12-19T17:02:58;5.13;;;1.42;;
73919;SDS011;62266;53.348;-1.496;2022-12-19T17:05:29;4.63;;;1.20;;
73919;SDS011;62266;53.348;-1.496;2022-12-19T17:07:56;5.10;;;1.25;;
73919;SDS011;62266;53.348;-1.496;2022-12-19T17:10:23;6.47;;;1.35;;
73919;SDS011;62266;53.348;-1.496;2022-12-19T17:12:54;3.57;;;1.00;;
73919;SDS011;62266;53.348;-1.496;2022-12-19T17:15:24;4.57;;;1.13;;
73919;SDS011;62266;53.348;-1.496;2022-12-19T17:17:52;1.48;;;0.77;;
73919;SDS011;62266;53.348;-1.496;2022-12-19T17:20:20;4.13;;;1.02;;
73919;SDS011;62266;53.348;-1.496;2022-12-19T17:22:47;3.90;;;1.40;;
73919;SDS011;62266;53.348;-1.496;2022-12-19T17:25:14;4.43;;;1.23;;
73919;SDS011;62266;53.348;-1.496;2022-12-19T17:27:42;5.63;;;1.58;;
73919;SDS011;62266;53.348;-1.496;2022-12-19T17:30:08;6.80;;;1.67;;
73919;SDS011;62266;53.348;-1.496;2022-12-19T17:32:34;5.18;;;1.00;;
73919;SDS011;62266;53.348;-1.496;2022-12-19T17:35:00;3.92;;;0.90;;
73919;SDS011;62266;53.348;-1.496;2022-12-19T17:37:25;6.55;;;1.30;;
73919;SDS011;62266;53.348;-1.496;2022-12-19T17:39:51;4.67;;;1.23;;
73919;SDS011;62266;53.348;-1.496;2022-12-19T17:42:23;3.90;;;1.60;;
73919;SDS011;62266;53.348;-1.496;2022-12-19T17:44:49;6.47;;;1.45;;